Time;durP1;ratioP1;P1;durP2;ratioP2;P2;SDS_P1;SDS_P2;PMS_P1;PMS_P2;Temp;Humidity;BMP_temperature;BMP_pressure;BME280_temperature;BME280_humidity;BME280_pressure;Samples;Min_cycle;Max_cycle;Signal;HPM_P1;HPM_P2
2021/01/26 00:00:38;;;;;;;4.53;3.30;;;1.10;99.90;;;;;;5052879;28;20479;-49
2021/01/26 00:03:06;;;;;;;5.83;3.47;;;1.00;99.90;;;;;;5052985;28;20455;-49
2021/01/26 00:05:32;;;;;;;4.20;3.43;;;0.90;99.90;;;;;;5053383;28;20511;-49
2021/01/26 00:07:59;;;;;;;5.30;3.20;;;1.00;99.90;;;;;;5053595;28;20509;-49
2021/01/26 00:10:25;;;;;;;4.67;3.27;;;1.00;99.90;;;;;;5050156;28;20509;-49
2021/01/26 00:12:52;;;;;;;4.53;3.50;;;1.00;99.90;;;;;;5053187;28;20451;-49
2021/01/26 00:15:19;;;;;;;10.10;3.37;;;1.00;99.90;;;;;;5051252;28;20470;-49
2021/01/26 00:17:46;;;;;;;5.03;3.63;;;1.10;99.90;;;;;;5054071;28;20439;-49
2021/01/26 00:20:15;;;;;;;5.37;4.00;;;1.10;99.90;;;;;;5053679;28;20472;-48
2021/01/26 00:22:42;;;;;;;7.97;4.10;;;1.10;99.90;;;;;;5053537;28;20459;-49
2021/01/26 00:25:14;;;;;;;5.07;3.33;;;1.10;99.90;;;;;;5053203;28;20448;-49
2021/01/26 00:27:40;;;;;;;5.87;3.87;;;1.00;99.90;;;;;;5053205;28;20490;-49
2021/01/26 00:30:09;;;;;;;6.17;3.97;;;1.20;99.90;;;;;;5052918;28;21295;-48
2021/01/26 00:32:36;;;;;;;5.90;4.20;;;1.00;99.90;;;;;;5053421;28;20458;-49
2021/01/26 00:35:03;;;;;;;5.00;3.90;;;0.80;99.90;;;;;;5052905;28;20455;-49
2021/01/26 00:37:30;;;;;;;6.87;4.10;;;0.90;99.90;;;;;;5052948;28;20455;-49
2021/01/26 00:39:57;;;;;;;5.87;3.83;;;0.80;99.90;;;;;;5052700;28;20467;-49
2021/01/26 00:42:24;;;;;;;5.80;4.07;;;0.90;99.90;;;;;;5053041;28;20454;-49
2021/01/26 00:44:50;;;;;;;7.27;4.20;;;0.90;99.90;;;;;;5051964;28;20463;-49
2021/01/26 00:47:17;;;;;;;8.10;4.67;;;1.00;99.90;;;;;;5050796;28;20483;-49
2021/01/26 00:49:43;;;;;;;6.60;4.30;;;1.00;99.90;;;;;;5050841;28;20513;-49
2021/01/26 00:52:10;;;;;;;5.87;4.20;;;1.00;99.90;;;;;;5052720;28;20451;-49
2021/01/26 00:54:37;;;;;;;6.57;4.33;;;1.10;99.90;;;;;;5052758;28;20452;-49
2021/01/26 00:57:04;;;;;;;7.03;4.40;;;1.10;99.90;;;;;;5053070;28;20458;-49
2021/01/26 00:59:31;;;;;;;6.57;4.37;;;1.00;99.90;;;;;;5046482;28;20453;-49
2021/01/26 01:01:57;;;;;;;7.13;5.00;;;1.00;99.90;;;;;;5052741;28;20459;-50
2021/01/26 01:04:24;;;;;;;6.03;4.40;;;1.00;99.90;;;;;;5052493;28;20452;-49
2021/01/26 01:06:50;;;;;;;7.60;4.77;;;0.90;99.90;;;;;;5052309;28;20537;-49
2021/01/26 01:09:17;;;;;;;8.30;4.83;;;1.00;99.90;;;;;;5052056;28;20485;-49
2021/01/26 01:11:44;;;;;;;8.00;4.83;;;1.00;99.90;;;;;;5052456;28;20479;-49
2021/01/26 01:14:11;;;;;;;7.50;4.67;;;0.90;99.90;;;;;;5052458;28;20458;-49
2021/01/26 01:16:37;;;;;;;8.67;4.70;;;0.70;99.90;;;;;;5052968;28;20520;-49
2021/01/26 01:19:04;;;;;;;8.53;5.23;;;0.70;99.90;;;;;;5049295;28;20980;-49
2021/01/26 01:21:30;;;;;;;5.50;3.97;;;0.80;99.90;;;;;;5046339;28;20467;-50
2021/01/26 01:23:57;;;;;;;6.03;4.00;;;1.00;99.90;;;;;;5052398;28;20451;-49
2021/01/26 01:26:23;;;;;;;6.57;3.87;;;1.00;99.90;;;;;;5052579;28;20548;-50
2021/01/26 01:28:51;;;;;;;3.83;3.10;;;0.90;99.90;;;;;;5051553;28;20490;-49
2021/01/26 01:31:17;;;;;;;3.63;3.07;;;1.00;99.90;;;;;;5051538;28;20467;-49
2021/01/26 01:33:44;;;;;;;4.37;3.20;;;1.00;99.90;;;;;;5052180;28;21018;-49
2021/01/26 01:36:10;;;;;;;4.47;3.40;;;0.90;99.90;;;;;;5051864;28;20462;-50
2021/01/26 01:38:37;;;;;;;4.50;3.57;;;0.80;99.90;;;;;;5039126;28;20456;-49
2021/01/26 01:41:03;;;;;;;4.97;3.03;;;0.70;99.90;;;;;;5032504;28;20827;-49
2021/01/26 01:43:30;;;;;;;4.87;3.37;;;0.70;99.90;;;;;;5032454;28;20481;-49
2021/01/26 01:45:57;;;;;;;5.63;3.60;;;0.80;99.90;;;;;;5032203;28;20497;-49
2021/01/26 01:48:28;;;;;;;5.33;3.83;;;1.00;99.90;;;;;;5042636;28;20486;-49
2021/01/26 01:51:02;;;;;;;5.37;3.40;;;0.90;99.90;;;;;;5046745;28;20471;-49
2021/01/26 01:53:34;;;;;;;5.63;3.80;;;0.80;99.90;;;;;;5052007;28;20508;-49
2021/01/26 01:56:06;;;;;;;5.67;3.83;;;0.90;99.90;;;;;;5050856;28;21013;-49
2021/01/26 01:58:40;;;;;;;5.73;3.63;;;1.00;99.90;;;;;;5039920;28;20970;-49
2021/01/26 02:01:11;;;;;;;5.33;3.63;;;1.00;99.90;;;;;;5032030;28;20534;-49
2021/01/26 02:03:42;;;;;;;6.07;3.90;;;1.10;99.90;;;;;;5048473;28;20463;-49
2021/01/26 02:06:11;;;;;;;5.00;3.73;;;0.90;99.90;;;;;;5051933;28;20459;-49
2021/01/26 02:08:44;;;;;;;5.37;4.00;;;1.00;99.90;;;;;;5051387;28;20858;-49
2021/01/26 02:11:10;;;;;;;4.90;3.57;;;1.10;99.90;;;;;;5051738;28;20861;-49
2021/01/26 02:13:37;;;;;;;8.83;4.50;;;1.10;99.90;;;;;;5051586;28;20970;-49
2021/01/26 02:16:05;;;;;;;10.03;4.60;;;1.00;99.90;;;;;;5051092;28;20453;-49
2021/01/26 02:18:54;;;;;;;7.50;4.60;;;0.80;99.90;;;;;;5050909;28;21024;-49
2021/01/26 02:21:54;;;;;;;6.63;4.07;;;0.80;99.90;;;;;;5051075;28;20478;-49
2021/01/26 02:25:03;;;;;;;5.83;3.80;;;1.10;99.90;;;;;;5048507;28;20520;-49
2021/01/26 02:28:13;;;;;;;8.90;4.90;;;0.90;99.90;;;;;;5012740;28;20487;-49
2021/01/26 02:30:48;;;;;;;7.57;4.40;;;0.90;99.90;;;;;;5041367;28;20478;-49
2021/01/26 02:33:56;;;;;;;8.13;4.63;;;0.80;99.90;;;;;;5051190;28;20439;-49
2021/01/26 02:36:59;;;;;;;8.87;4.87;;;0.80;99.90;;;;;;5051179;28;20915;-49
2021/01/26 02:40:01;;;;;;;8.47;4.70;;;0.80;99.90;;;;;;5050453;28;21208;-49
2021/01/26 02:42:49;;;;;;;13.63;5.67;;;0.80;99.90;;;;;;5050826;28;20469;-49
2021/01/26 02:45:27;;;;;;;9.20;5.13;;;0.80;99.90;;;;;;5050540;28;20453;-49
2021/01/26 02:48:06;;;;;;;9.17;4.50;;;0.80;99.90;;;;;;5045385;28;21004;-50
2021/01/26 02:50:40;;;;;;;8.73;4.80;;;0.90;99.90;;;;;;5030998;28;21000;-49
2021/01/26 02:53:15;;;;;;;6.70;3.80;;;0.90;99.90;;;;;;5031031;28;20459;-49
2021/01/26 02:55:47;;;;;;;7.13;4.20;;;0.90;99.90;;;;;;5042226;28;20462;-49
2021/01/26 02:58:21;;;;;;;5.53;3.90;;;0.90;99.90;;;;;;5050627;28;20448;-49
2021/01/26 03:00:54;;;;;;;7.87;4.40;;;1.00;99.90;;;;;;5050713;28;20478;-49
2021/01/26 03:03:25;;;;;;;5.70;3.93;;;0.90;99.90;;;;;;5050875;28;20541;-49
2021/01/26 03:05:57;;;;;;;5.77;3.87;;;0.80;99.90;;;;;;5050034;28;20801;-49
2021/01/26 03:08:30;;;;;;;5.93;4.07;;;0.80;99.90;;;;;;5050787;28;20487;-49
2021/01/26 03:11:03;;;;;;;7.30;4.10;;;0.60;99.90;;;;;;5066443;22;20554;-50
2021/01/26 03:13:33;;;;;;;5.40;4.03;;;0.80;99.90;;;;;;5030400;28;20513;-51
2021/01/26 03:16:03;;;;;;;4.10;3.70;;;0.90;99.90;;;;;;5046854;28;20454;-50
2021/01/26 03:18:38;;;;;;;5.20;3.43;;;0.70;99.90;;;;;;5050481;28;20445;-50
2021/01/26 03:21:06;;;;;;;6.50;4.50;;;0.70;99.90;;;;;;5050655;28;20460;-50
2021/01/26 03:23:40;;;;;;;5.60;3.87;;;0.80;99.90;;;;;;5050581;28;20451;-50
2021/01/26 03:26:09;;;;;;;6.83;3.47;;;0.80;99.90;;;;;;5031873;28;20953;-50
2021/01/26 03:28:42;;;;;;;5.03;3.60;;;0.90;99.90;;;;;;5030060;28;21056;-50
2021/01/26 03:31:13;;;;;;;7.57;3.83;;;0.80;99.90;;;;;;5030410;28;20472;-50
2021/01/26 03:33:46;;;;;;;4.40;3.23;;;0.80;99.90;;;;;;5030121;28;20461;-50
2021/01/26 03:36:14;;;;;;;4.77;3.40;;;0.80;99.90;;;;;;5048608;28;20458;-51
2021/01/26 03:38:42;;;;;;;5.60;3.90;;;0.90;99.90;;;;;;5050531;28;20455;-50
2021/01/26 03:41:09;;;;;;;6.47;4.10;;;0.90;99.90;;;;;;5050300;28;21026;-50
2021/01/26 03:43:39;;;;;;;5.00;3.83;;;0.90;99.90;;;;;;5033184;28;20451;-50
2021/01/26 03:46:15;;;;;;;5.07;3.50;;;1.00;99.90;;;;;;5047180;28;20495;-50
2021/01/26 03:48:58;;;;;;;5.77;3.87;;;0.90;99.90;;;;;;5050206;28;21074;-50
2021/01/26 03:51:38;;;;;;;6.53;4.07;;;0.90;99.90;;;;;;5049977;28;20477;-50
2021/01/26 03:54:26;;;;;;;8.17;4.60;;;0.90;99.90;;;;;;5048950;28;20447;-50
2021/01/26 03:57:24;;;;;;;5.63;4.07;;;0.90;99.90;;;;;;5030051;28;20819;-50
2021/01/26 04:00:04;;;;;;;5.20;3.80;;;1.00;99.90;;;;;;5030393;28;20452;-50
2021/01/26 04:02:35;;;;;;;4.93;3.53;;;1.00;99.90;;;;;;5030277;28;20458;-50
2021/01/26 04:05:07;;;;;;;5.93;4.20;;;0.90;99.90;;;;;;5030022;28;20448;-51
2021/01/26 04:07:40;;;;;;;6.03;3.97;;;0.90;99.90;;;;;;5030319;28;20483;-50
2021/01/26 04:10:21;;;;;;;6.17;4.33;;;0.80;99.90;;;;;;5029918;28;20455;-50
2021/01/26 04:12:50;;;;;;;6.77;4.30;;;0.90;99.90;;;;;;5030132;28;20818;-50
2021/01/26 04:15:23;;;;;;;5.57;4.10;;;0.70;99.90;;;;;;5039812;28;20569;-50
2021/01/26 04:17:52;;;;;;;4.67;3.43;;;0.80;99.90;;;;;;5050200;28;20454;-50
2021/01/26 04:20:23;;;;;;;6.80;4.80;;;0.80;99.90;;;;;;5053264;28;20471;-50
2021/01/26 04:22:53;;;;;;;10.40;5.40;;;0.90;99.90;;;;;;5053636;28;20446;-50
2021/01/26 04:25:30;;;;;;;5.20;4.03;;;0.80;99.90;;;;;;5046606;28;20542;-50
2021/01/26 04:27:57;;;;;;;7.40;4.63;;;0.80;99.90;;;;;;5053710;28;20485;-50
2021/01/26 04:30:25;;;;;;;6.03;3.97;;;0.90;99.90;;;;;;5053445;28;20475;-50
2021/01/26 04:32:58;;;;;;;6.13;4.67;;;0.90;99.90;;;;;;5053603;28;20827;-50
2021/01/26 04:35:25;;;;;;;7.53;4.07;;;0.80;99.90;;;;;;5042238;28;20452;-50
2021/01/26 04:37:53;;;;;;;8.20;4.90;;;0.80;99.90;;;;;;5033081;28;20570;-50
2021/01/26 04:40:20;;;;;;;9.43;5.07;;;0.80;99.90;;;;;;5035603;28;20533;-50
2021/01/26 04:42:49;;;;;;;5.67;3.93;;;0.80;99.90;;;;;;5024626;28;20452;-51
2021/01/26 04:45:23;;;;;;;6.03;4.20;;;0.70;99.90;;;;;;5053178;28;20567;-51
2021/01/26 04:47:59;;;;;;;6.30;3.67;;;0.50;99.90;;;;;;5035738;28;20485;-50
2021/01/26 04:50:31;;;;;;;7.60;4.00;;;0.40;99.90;;;;;;5032497;28;20483;-50
2021/01/26 04:53:10;;;;;;;6.80;3.73;;;0.40;99.90;;;;;;5035896;28;20610;-50
2021/01/26 04:55:47;;;;;;;6.70;3.60;;;0.50;99.90;;;;;;5037616;28;20455;-50
2021/01/26 04:58:55;;;;;;;5.57;3.67;;;0.40;99.90;;;;;;5034941;28;20952;-50
2021/01/26 05:01:39;;;;;;;5.10;3.77;;;0.50;99.90;;;;;;5032848;28;20879;-50
2021/01/26 05:04:11;;;;;;;5.30;3.57;;;0.50;99.90;;;;;;5030571;28;20503;-50
2021/01/26 05:06:42;;;;;;;6.97;3.77;;;0.70;99.90;;;;;;5033257;28;20474;-50
2021/01/26 05:09:14;;;;;;;5.30;3.40;;;0.50;99.90;;;;;;5032697;28;20485;-50
2021/01/26 05:11:44;;;;;;;6.07;3.37;;;0.40;99.90;;;;;;5032742;28;20491;-50
2021/01/26 05:14:15;;;;;;;6.77;3.60;;;0.50;99.90;;;;;;5032462;28;21027;-50
2021/01/26 05:16:48;;;;;;;4.40;3.40;;;0.60;99.90;;;;;;5032938;28;20862;-50
2021/01/26 05:19:20;;;;;;;6.40;3.67;;;0.40;99.90;;;;;;5032740;28;20471;-50
2021/01/26 05:21:54;;;;;;;6.33;3.73;;;0.40;99.90;;;;;;5032849;28;20470;-50
2021/01/26 05:24:27;;;;;;;6.53;3.80;;;0.40;99.90;;;;;;5032659;28;20855;-50
2021/01/26 05:26:54;;;;;;;4.63;3.33;;;0.40;99.90;;;;;;5013001;28;20455;-50
2021/01/26 05:29:20;;;;;;;5.70;3.63;;;0.50;99.90;;;;;;5012480;28;20467;-50
2021/01/26 05:31:53;;;;;;;9.50;3.97;;;0.50;99.90;;;;;;5020820;28;20475;-50
2021/01/26 05:34:21;;;;;;;9.60;4.60;;;0.40;99.90;;;;;;5035297;28;20445;-50
2021/01/26 05:36:48;;;;;;;7.40;4.60;;;0.50;99.90;;;;;;5032821;28;20451;-50
2021/01/26 05:39:20;;;;;;;7.43;4.43;;;0.60;99.90;;;;;;5032224;28;20849;-51
2021/01/26 05:41:47;;;;;;;12.67;4.80;;;0.80;99.90;;;;;;5032323;28;20481;-51
2021/01/26 05:44:15;;;;;;;7.23;4.33;;;1.00;99.90;;;;;;5034133;28;20466;-50
2021/01/26 05:46:43;;;;;;;6.40;4.13;;;1.00;99.90;;;;;;5033292;28;20455;-50
2021/01/26 05:49:10;;;;;;;9.50;4.27;;;1.00;99.90;;;;;;5031884;28;20487;-50
2021/01/26 05:51:40;;;;;;;9.10;5.20;;;0.80;99.90;;;;;;5032002;28;20482;-51
2021/01/26 05:54:14;;;;;;;6.97;4.30;;;0.70;99.90;;;;;;5031980;28;20452;-51
2021/01/26 05:56:52;;;;;;;11.50;6.77;;;0.70;99.90;;;;;;5032243;28;20466;-50
2021/01/26 05:59:25;;;;;;;12.20;7.00;;;0.70;99.90;;;;;;5032130;28;20939;-50
2021/01/26 06:01:53;;;;;;;9.63;5.57;;;0.90;99.90;;;;;;5031946;28;20464;-50
2021/01/26 06:04:25;;;;;;;11.37;5.57;;;0.80;99.90;;;;;;5039774;28;20458;-50
2021/01/26 06:06:55;;;;;;;9.00;5.07;;;0.80;99.90;;;;;;5051186;28;20455;-50
2021/01/26 06:09:39;;;;;;;7.30;5.10;;;0.70;99.90;;;;;;5033100;28;20487;-50
2021/01/26 06:12:18;;;;;;;9.43;5.70;;;0.70;99.90;;;;;;5031691;28;20864;-49
2021/01/26 06:14:47;;;;;;;9.00;5.37;;;0.60;99.90;;;;;;5031034;28;20514;-50
2021/01/26 06:17:20;;;;;;;9.43;5.20;;;0.60;99.90;;;;;;5030661;28;21205;-50
2021/01/26 06:20:01;;;;;;;10.80;5.67;;;0.70;99.90;;;;;;5030514;28;20451;-49
2021/01/26 06:22:28;;;;;;;12.07;6.03;;;0.70;99.90;;;;;;5034101;28;20452;-50
2021/01/26 06:24:56;;;;;;;11.70;5.63;;;0.60;99.90;;;;;;5034169;28;20459;-49
2021/01/26 06:27:47;;;;;;;8.27;5.80;;;0.60;99.90;;;;;;5044897;28;20510;-50
2021/01/26 06:30:40;;;;;;;12.00;7.40;;;0.60;99.90;;;;;;5020963;28;20963;-49
2021/01/26 06:33:48;;;;;;;10.23;5.57;;;0.50;99.90;;;;;;5022851;28;20465;-49
2021/01/26 06:36:27;;;;;;;7.73;4.70;;;0.40;99.90;;;;;;5029102;28;20503;-49
2021/01/26 06:39:14;;;;;;;10.33;5.50;;;0.40;99.90;;;;;;5019478;28;20463;-49
2021/01/26 06:42:06;;;;;;;9.03;5.07;;;0.50;99.90;;;;;;5030854;28;20467;-49
2021/01/26 06:45:08;;;;;;;8.33;4.60;;;0.40;99.90;;;;;;5028194;28;20520;-49
2021/01/26 06:47:51;;;;;;;9.00;4.70;;;0.40;99.90;;;;;;5002658;28;20494;-49
2021/01/26 06:50:31;;;;;;;8.00;4.50;;;0.40;99.90;;;;;;5012751;28;20476;-50
2021/01/26 06:53:10;;;;;;;10.73;5.27;;;0.50;99.90;;;;;;5031045;28;20999;-49
2021/01/26 06:55:58;;;;;;;8.80;5.00;;;0.40;99.90;;;;;;5037450;28;20463;-49
2021/01/26 06:58:55;;;;;;;7.97;4.43;;;0.30;99.90;;;;;;5051016;28;20486;-49
2021/01/26 07:01:52;;;;;;;10.50;4.83;;;0.40;99.90;;;;;;5027855;28;20472;-50
2021/01/26 07:04:53;;;;;;;9.97;4.80;;;0.50;99.90;;;;;;5030757;28;20459;-50
2021/01/26 07:07:58;;;;;;;8.00;5.53;;;0.50;99.90;;;;;;5030805;28;20446;-49
2021/01/26 07:10:35;;;;;;;9.77;4.57;;;0.50;99.90;;;;;;5031005;28;20475;-50
2021/01/26 07:13:17;;;;;;;7.90;3.80;;;0.50;99.90;;;;;;5030759;28;20450;-49
2021/01/26 07:16:07;;;;;;;5.53;3.77;;;0.40;99.90;;;;;;5032751;28;21036;-50
2021/01/26 07:19:24;;;;;;;8.67;4.07;;;0.60;99.90;;;;;;5034118;28;20451;-50
2021/01/26 07:22:08;;;;;;;8.47;3.90;;;0.70;99.90;;;;;;5027071;28;20825;-50
2021/01/26 07:24:46;;;;;;;6.57;4.07;;;0.70;99.90;;;;;;5031079;28;20452;-49
2021/01/26 07:27:59;;;;;;;6.40;3.97;;;0.70;99.90;;;;;;5013228;28;20449;-49
2021/01/26 07:30:30;;;;;;;6.87;3.70;;;0.80;99.90;;;;;;5007727;28;20864;-49
2021/01/26 07:33:04;;;;;;;8.33;3.20;;;0.80;99.90;;;;;;5030590;28;20459;-49
2021/01/26 07:35:36;;;;;;;6.93;3.77;;;0.70;99.90;;;;;;5039605;28;20446;-49
2021/01/26 07:38:09;;;;;;;6.63;3.87;;;1.00;99.90;;;;;;5010962;28;20445;-49
2021/01/26 07:40:41;;;;;;;8.27;4.17;;;1.30;99.90;;;;;;5022927;28;20479;-49
2021/01/26 07:43:17;;;;;;;8.23;4.67;;;1.00;99.90;;;;;;5030479;28;20442;-49
2021/01/26 07:45:53;;;;;;;6.87;3.90;;;1.00;99.90;;;;;;5039386;28;20448;-50
2021/01/26 07:48:28;;;;;;;9.03;4.60;;;0.90;99.90;;;;;;5025127;28;20479;-50
2021/01/26 07:50:58;;;;;;;8.50;4.23;;;1.10;99.90;;;;;;5030021;28;20517;-49
2021/01/26 07:53:34;;;;;;;9.90;4.30;;;1.30;99.90;;;;;;5037721;28;20447;-50
2021/01/26 07:56:06;;;;;;;5.47;3.47;;;1.30;99.90;;;;;;5037751;28;20458;-49
2021/01/26 07:58:34;;;;;;;5.00;3.27;;;1.00;99.90;;;;;;5034282;28;20813;-49
2021/01/26 08:01:03;;;;;;;4.43;2.73;;;1.10;99.90;;;;;;5034040;28;21115;-49
2021/01/26 08:03:30;;;;;;;8.37;3.10;;;1.10;99.90;;;;;;5039919;28;20446;-49
2021/01/26 08:05:58;;;;;;;4.20;2.63;;;1.10;99.90;;;;;;5050585;28;20481;-49
2021/01/26 08:08:28;;;;;;;6.77;2.90;;;1.10;99.90;;;;;;5034134;28;20489;-49
2021/01/26 08:11:14;;;;;;;3.37;2.33;;;1.10;99.90;;;;;;5033168;28;20497;-49
2021/01/26 08:13:49;;;;;;;4.50;2.70;;;1.00;99.90;;;;;;5033394;28;21040;-49
2021/01/26 08:16:21;;;;;;;5.40;2.57;;;1.00;99.90;;;;;;5033343;28;21026;-49
2021/01/26 08:18:49;;;;;;;4.10;2.50;;;1.00;99.90;;;;;;5034065;28;20446;-49
2021/01/26 08:21:32;;;;;;;4.60;2.70;;;1.10;99.90;;;;;;5034081;28;20851;-49
2021/01/26 08:24:17;;;;;;;6.20;3.10;;;1.20;99.90;;;;;;5013862;28;20958;-49
2021/01/26 08:26:45;;;;;;;4.07;2.90;;;1.00;99.90;;;;;;5021353;28;21207;-49
2021/01/26 08:29:32;;;;;;;4.57;2.63;;;0.80;99.90;;;;;;5032646;28;20483;-48
2021/01/26 08:32:34;;;;;;;4.93;2.87;;;0.90;99.90;;;;;;5032479;28;20475;-49
2021/01/26 08:35:03;;;;;;;4.03;2.50;;;1.00;99.90;;;;;;5031934;28;20451;-49
2021/01/26 08:37:45;;;;;;;3.20;2.20;;;0.90;99.90;;;;;;5031881;28;20459;-49
2021/01/26 08:40:18;;;;;;;6.00;3.00;;;0.80;99.90;;;;;;5031119;28;20462;-49
2021/01/26 08:43:02;;;;;;;3.93;2.93;;;0.90;99.90;;;;;;5032638;28;20990;-49
2021/01/26 08:45:52;;;;;;;3.80;2.93;;;0.90;99.90;;;;;;5033170;28;20479;-49
2021/01/26 08:48:25;;;;;;;5.37;3.00;;;0.90;99.90;;;;;;5032611;28;21152;-49
2021/01/26 08:51:11;;;;;;;7.37;3.60;;;0.90;99.90;;;;;;5033249;28;20559;-49
2021/01/26 08:53:41;;;;;;;4.77;2.83;;;1.00;99.90;;;;;;5032603;28;20459;-49
2021/01/26 08:56:49;;;;;;;3.90;2.53;;;0.80;99.90;;;;;;5032960;28;20451;-49
2021/01/26 08:59:30;;;;;;;4.13;2.30;;;0.90;99.90;;;;;;5033228;28;20448;-48
2021/01/26 09:01:58;;;;;;;3.80;2.33;;;1.00;99.90;;;;;;5033196;28;21020;-48
2021/01/26 09:04:43;;;;;;;2.53;2.07;;;1.10;99.90;;;;;;5032371;28;20550;-48
2021/01/26 09:07:10;;;;;;;3.30;2.13;;;1.20;99.90;;;;;;5035522;28;20452;-49
2021/01/26 09:09:55;;;;;;;3.40;2.07;;;1.30;99.90;;;;;;5033157;28;20491;-49
2021/01/26 09:12:24;;;;;;;3.10;2.03;;;1.30;99.90;;;;;;5070965;22;21014;-48
2021/01/26 09:14:58;;;;;;;3.33;2.00;;;1.20;99.90;;;;;;5051268;28;20451;-48
2021/01/26 09:17:30;;;;;;;5.13;2.10;;;1.10;99.90;;;;;;5046387;28;21012;-48
2021/01/26 09:20:05;;;;;;;3.57;2.20;;;1.20;99.90;;;;;;5032812;28;20980;-48
2021/01/26 09:22:33;;;;;;;3.20;2.20;;;1.10;99.90;;;;;;5029084;28;20473;-48
2021/01/26 09:25:04;;;;;;;4.40;2.77;;;1.30;99.90;;;;;;5031033;28;20510;-48
2021/01/26 09:27:33;;;;;;;6.10;3.20;;;1.30;99.90;;;;;;5029994;28;20503;-48
2021/01/26 09:30:13;;;;;;;6.10;3.90;;;1.30;99.90;;;;;;5032435;28;20952;-48
2021/01/26 09:32:43;;;;;;;6.23;3.70;;;1.40;99.90;;;;;;5032583;28;20462;-48
2021/01/26 09:35:24;;;;;;;5.10;2.90;;;1.40;99.90;;;;;;5012379;28;20477;-48
2021/01/26 09:38:00;;;;;;;6.50;3.33;;;1.40;99.90;;;;;;5023179;28;20462;-48
2021/01/26 09:40:27;;;;;;;4.83;2.80;;;1.40;99.90;;;;;;5018737;28;20517;-48
2021/01/26 09:43:18;;;;;;;5.80;3.03;;;1.30;99.90;;;;;;5029139;28;20451;-48
2021/01/26 09:45:52;;;;;;;4.60;2.70;;;1.50;99.90;;;;;;5012313;28;20452;-48
2021/01/26 09:48:31;;;;;;;4.70;2.53;;;1.40;99.90;;;;;;5012746;28;20484;-47
2021/01/26 09:51:11;;;;;;;5.07;3.00;;;1.70;99.90;;;;;;5012821;28;20480;-48
2021/01/26 09:53:40;;;;;;;5.40;3.10;;;1.60;99.90;;;;;;5012556;28;20453;-48
2021/01/26 09:56:08;;;;;;;4.27;2.53;;;1.60;99.90;;;;;;5027710;28;20449;-48
2021/01/26 09:58:34;;;;;;;3.87;2.67;;;1.60;99.90;;;;;;5018074;28;20513;-48
2021/01/26 10:01:02;;;;;;;4.77;2.97;;;1.60;99.90;;;;;;5032098;28;20480;-48
2021/01/26 10:03:29;;;;;;;2.77;2.20;;;1.50;99.90;;;;;;5031983;28;20451;-48
2021/01/26 10:05:59;;;;;;;3.43;2.10;;;1.50;99.90;;;;;;5030293;28;20943;-48
2021/01/26 10:08:29;;;;;;;2.50;1.93;;;1.60;99.90;;;;;;5031167;28;20483;-47
2021/01/26 10:10:56;;;;;;;3.67;2.20;;;1.70;99.90;;;;;;5031282;28;20482;-48
2021/01/26 10:13:31;;;;;;;3.47;1.50;;;1.70;99.90;;;;;;5031569;28;20443;-48
2021/01/26 10:15:59;;;;;;;2.13;1.67;;;1.80;99.90;;;;;;5027016;28;20550;-48
2021/01/26 10:18:30;;;;;;;3.95;1.83;;;1.80;99.90;;;;;;5030502;28;20446;-48
2021/01/26 10:21:00;;;;;;;3.27;1.80;;;1.90;99.90;;;;;;5049966;28;20635;-48
2021/01/26 10:23:31;;;;;;;2.10;1.60;;;2.10;99.90;;;;;;5051187;28;20455;-48
2021/01/26 10:26:14;;;;;;;3.27;1.83;;;2.20;99.90;;;;;;5045473;28;21298;-47
2021/01/26 10:29:16;;;;;;;3.50;1.37;;;2.00;99.90;;;;;;5031123;28;20483;-48
2021/01/26 10:31:45;;;;;;;2.67;2.07;;;1.90;99.90;;;;;;5013355;28;20471;-48
2021/01/26 10:34:24;;;;;;;5.00;1.90;;;1.90;99.90;;;;;;5014480;28;20447;-48
2021/01/26 10:36:51;;;;;;;2.20;2.00;;;1.70;99.90;;;;;;5030297;28;20456;-47
2021/01/26 10:39:26;;;;;;;2.73;1.93;;;1.70;99.90;;;;;;5030547;28;20463;-48
2021/01/26 10:42:01;;;;;;;1.80;1.20;;;1.90;99.90;;;;;;5030405;28;20482;-47
2021/01/26 10:44:29;;;;;;;1.80;1.50;;;1.90;99.90;;;;;;5030479;28;20459;-48
2021/01/26 10:46:56;;;;;;;2.40;1.77;;;1.90;99.90;;;;;;5030784;28;20459;-47
2021/01/26 10:49:30;;;;;;;1.60;1.50;;;2.00;99.90;;;;;;5030280;28;20810;-48
2021/01/26 10:51:58;;;;;;;1.73;1.40;;;2.00;99.90;;;;;;5030036;28;20507;-48
2021/01/26 10:54:26;;;;;;;2.50;1.80;;;1.90;99.90;;;;;;5030433;28;20450;-48
2021/01/26 10:56:52;;;;;;;2.63;1.90;;;2.00;99.90;;;;;;5030502;28;20460;-48
2021/01/26 10:59:19;;;;;;;3.50;1.73;;;1.90;99.90;;;;;;5030671;28;20444;-48
2021/01/26 11:01:46;;;;;;;2.50;1.70;;;2.10;99.90;;;;;;5029953;28;20475;-48
2021/01/26 11:04:14;;;;;;;1.63;1.50;;;2.10;99.90;;;;;;5030375;28;20460;-48
2021/01/26 11:06:41;;;;;;;2.40;1.60;;;2.10;99.90;;;;;;5030389;28;20451;-48
2021/01/26 11:09:08;;;;;;;1.97;1.33;;;2.10;99.90;;;;;;5029760;28;20480;-48
2021/01/26 11:11:36;;;;;;;4.53;1.37;;;2.30;99.90;;;;;;5030052;28;20825;-48
2021/01/26 11:14:07;;;;;;;5.10;1.60;;;2.20;99.90;;;;;;5030088;28;20465;-48
2021/01/26 11:16:34;;;;;;;3.67;1.90;;;2.30;99.90;;;;;;5030495;28;20452;-48
2021/01/26 11:19:02;;;;;;;2.50;1.90;;;2.40;99.90;;;;;;5030302;28;20854;-48
2021/01/26 11:21:30;;;;;;;3.03;2.10;;;2.40;99.90;;;;;;5030280;28;20926;-48
2021/01/26 11:23:57;;;;;;;1.70;1.43;;;2.30;99.90;;;;;;5029564;28;20456;-48
2021/01/26 11:26:25;;;;;;;3.00;1.80;;;2.50;99.90;;;;;;5030267;28;20456;-48
2021/01/26 11:28:53;;;;;;;9.00;3.30;;;2.50;99.90;;;;;;5029775;28;21009;-48
2021/01/26 11:31:20;;;;;;;5.23;2.20;;;2.40;99.90;;;;;;5029427;28;20492;-49
2021/01/26 11:33:47;;;;;;;4.93;1.67;;;2.60;99.90;;;;;;5029808;28;20468;-48
2021/01/26 11:36:14;;;;;;;3.23;1.73;;;2.30;99.90;;;;;;5029534;28;20958;-48
2021/01/26 11:38:44;;;;;;;6.00;2.40;;;2.30;99.90;;;;;;5029900;28;20957;-48
2021/01/26 11:41:10;;;;;;;7.50;4.03;;;2.30;99.90;;;;;;5030062;28;20551;-48
2021/01/26 11:43:37;;;;;;;7.73;3.47;;;2.50;99.90;;;;;;5029887;28;21089;-48
2021/01/26 11:46:06;;;;;;;1.73;1.50;;;2.60;99.90;;;;;;5030107;28;20452;-48
2021/01/26 11:48:33;;;;;;;3.77;1.30;;;2.50;99.90;;;;;;5030341;28;20480;-48
2021/01/26 11:50:59;;;;;;;1.93;1.70;;;2.40;99.90;;;;;;5029743;28;20476;-48
2021/01/26 11:53:26;;;;;;;1.30;1.20;;;2.20;99.90;;;;;;5029813;28;20452;-48
2021/01/26 11:55:55;;;;;;;3.33;1.40;;;2.10;99.90;;;;;;5029713;28;20451;-47
2021/01/26 11:58:22;;;;;;;1.90;1.47;;;2.00;99.90;;;;;;5030071;28;20455;-48
2021/01/26 12:00:48;;;;;;;4.87;1.80;;;2.00;99.90;;;;;;5029695;28;20518;-48
2021/01/26 12:03:16;;;;;;;1.87;1.70;;;2.00;99.90;;;;;;5028495;28;20456;-49
2021/01/26 12:05:43;;;;;;;3.00;1.53;;;2.10;99.90;;;;;;5029021;28;20455;-48
2021/01/26 12:08:11;;;;;;;1.53;1.43;;;2.10;99.90;;;;;;5029409;28;20476;-48
2021/01/26 12:10:38;;;;;;;1.90;1.00;;;2.30;99.90;;;;;;5029464;28;20538;-48
2021/01/26 12:13:05;;;;;;;2.90;1.80;;;2.40;99.90;;;;;;5029076;28;20456;-48
2021/01/26 12:15:35;;;;;;;2.00;1.40;;;2.40;99.90;;;;;;5029482;28;20949;-48
2021/01/26 12:18:01;;;;;;;2.50;1.60;;;2.40;99.90;;;;;;5029296;28;20441;-48
2021/01/26 12:20:30;;;;;;;3.70;2.10;;;2.50;99.90;;;;;;5030096;28;20492;-48
2021/01/26 12:22:58;;;;;;;2.20;1.53;;;2.50;99.90;;;;;;5029531;28;20800;-49
2021/01/26 12:25:26;;;;;;;2.83;1.40;;;2.60;99.90;;;;;;5029531;28;20583;-49
2021/01/26 12:27:53;;;;;;;2.40;1.60;;;2.60;99.90;;;;;;5029334;28;20837;-48
2021/01/26 12:30:21;;;;;;;2.33;1.80;;;2.60;99.90;;;;;;5029420;28;20451;-48
2021/01/26 12:32:48;;;;;;;2.07;1.70;;;2.70;99.90;;;;;;5028609;28;20456;-48
2021/01/26 12:35:17;;;;;;;1.93;1.73;;;2.70;99.90;;;;;;5029566;28;20452;-48
2021/01/26 12:37:45;;;;;;;2.67;2.20;;;2.80;99.90;;;;;;5029477;28;20509;-49
2021/01/26 12:40:12;;;;;;;3.60;2.17;;;2.90;99.90;;;;;;5030673;28;20464;-48
2021/01/26 12:42:39;;;;;;;4.50;1.87;;;2.90;99.90;;;;;;5032519;28;20913;-49
2021/01/26 12:45:07;;;;;;;2.53;1.77;;;2.80;99.90;;;;;;5032613;28;20456;-48
2021/01/26 12:47:34;;;;;;;2.13;1.73;;;2.90;99.90;;;;;;5032987;28;20482;-49
2021/01/26 12:50:00;;;;;;;2.80;1.70;;;2.90;99.90;;;;;;5032617;28;20481;-48
2021/01/26 12:52:27;;;;;;;1.63;1.27;;;2.90;99.90;;;;;;5032128;28;20472;-48
2021/01/26 12:54:54;;;;;;;2.20;1.70;;;2.90;99.90;;;;;;5032727;28;20452;-48
2021/01/26 12:57:21;;;;;;;2.17;1.80;;;2.90;99.90;;;;;;5032557;28;20453;-48
2021/01/26 12:59:51;;;;;;;1.90;1.40;;;2.90;99.90;;;;;;5032634;28;20452;-48
2021/01/26 13:02:17;;;;;;;2.07;1.40;;;2.90;99.90;;;;;;5032150;28;20486;-48
2021/01/26 13:04:44;;;;;;;2.83;1.50;;;2.80;99.90;;;;;;5014941;28;20861;-48
2021/01/26 13:07:10;;;;;;;3.47;1.77;;;2.80;99.90;;;;;;5017009;28;20450;-48
2021/01/26 13:09:37;;;;;;;3.40;1.40;;;3.00;99.90;;;;;;5032421;28;20485;-48
2021/01/26 13:12:05;;;;;;;2.50;1.20;;;3.00;99.90;;;;;;5031535;28;21062;-48
2021/01/26 13:14:31;;;;;;;1.43;1.20;;;3.00;99.90;;;;;;5032306;28;20469;-49
2021/01/26 13:16:58;;;;;;;2.93;1.70;;;2.80;99.90;;;;;;5032378;28;20455;-49
2021/01/26 13:19:24;;;;;;;1.70;1.17;;;2.80;99.90;;;;;;5032290;28;20447;-48
2021/01/26 13:21:51;;;;;;;4.40;1.20;;;2.70;99.90;;;;;;5031459;28;20985;-48
2021/01/26 13:24:18;;;;;;;2.53;1.20;;;2.80;99.90;;;;;;5032189;28;21048;-49
2021/01/26 13:26:45;;;;;;;1.93;1.53;;;2.70;99.90;;;;;;5031721;28;20476;-48